BHS230 MYNN-KMIA
Flight info
| Callsign | BHS230 |
|---|---|
| Flight time | N/A |
| Altitude | 20000 |
| Route | FREDY2 NICKO VIICE2 |
| Aircraft | B737/M-SDE2E3FGHIRWXY/LB1 |
Departure
| Time | 2026-05-08 00:12 |
|---|---|
| Airport | Lynden Pindling International Airport (MYNN) |
Arrival
| Time | N/A |
|---|---|
| Airport | Miami International Airport (KMIA) |
| Time | Latitude | Longitude | Altitude | Speed | Heading |
|---|---|---|---|---|---|
| 2026-05-07 23:55 | 25.04809 | -77.46735 | 11 ft | 0 kts | 310° |
| 2026-05-08 00:06 | 25.04809 | -77.46734 | 11 ft | 1 kts | 310° |
| 2026-05-08 00:07 | 25.04801 | -77.46726 | 2 ft | 4 kts | 316° |
| 2026-05-08 00:07 | 25.04781 | -77.46705 | 14 ft | 4 kts | 312° |
| 2026-05-08 00:07 | 25.04768 | -77.46684 | 13 ft | 4 kts | 258° |
| 2026-05-08 00:07 | 25.04770 | -77.46677 | 12 ft | 1 kts | 227° |
| 2026-05-08 00:09 | 25.04735 | -77.46715 | 11 ft | 12 kts | 225° |
| 2026-05-08 00:09 | 25.04730 | -77.46797 | 12 ft | 12 kts | 303° |
| 2026-05-08 00:10 | 25.04789 | -77.46864 | 12 ft | 12 kts | 313° |
| 2026-05-08 00:10 | 25.04848 | -77.46933 | 12 ft | 15 kts | 314° |
| 2026-05-08 00:10 | 25.04935 | -77.47028 | 11 ft | 18 kts | 316° |
| 2026-05-08 00:10 | 25.05023 | -77.47126 | 12 ft | 18 kts | 314° |
| 2026-05-08 00:11 | 25.05107 | -77.47221 | 12 ft | 17 kts | 314° |
| 2026-05-08 00:11 | 25.05189 | -77.47312 | 11 ft | 16 kts | 314° |
| 2026-05-08 00:11 | 25.05220 | -77.47424 | 12 ft | 16 kts | 258° |
| 2026-05-08 00:11 | 25.05162 | -77.47514 | 11 ft | 15 kts | 188° |
| 2026-05-08 00:12 | 25.05072 | -77.47440 | 11 ft | 33 kts | 134° |
| 2026-05-08 00:12 | 25.04649 | -77.46966 | 14 ft | 137 kts | 133° |
| 2026-05-08 00:12 | 25.03830 | -77.46056 | 492 ft | 187 kts | 135° |
| 2026-05-08 00:12 | 25.02843 | -77.45050 | 1735 ft | 196 kts | 136° |
| 2026-05-08 00:13 | 25.01843 | -77.43940 | 2689 ft | 211 kts | 135° |
| 2026-05-08 00:13 | 25.00796 | -77.42750 | 3470 ft | 220 kts | 135° |
| 2026-05-08 00:13 | 24.99705 | -77.41517 | 4275 ft | 229 kts | 135° |
| 2026-05-08 00:13 | 24.98388 | -77.40385 | 4685 ft | 258 kts | 160° |
| 2026-05-08 00:14 | 24.96568 | -77.40312 | 5371 ft | 270 kts | 200° |
| 2026-05-08 00:14 | 24.95044 | -77.41472 | 6468 ft | 270 kts | 234° |
| 2026-05-08 00:14 | 24.94356 | -77.43391 | 7396 ft | 277 kts | 266° |
| 2026-05-08 00:14 | 24.94253 | -77.45537 | 8311 ft | 285 kts | 263° |
| 2026-05-08 00:15 | 24.93925 | -77.47724 | 9198 ft | 294 kts | 261° |
| 2026-05-08 00:15 | 24.93570 | -77.49974 | 10091 ft | 301 kts | 262° |
| 2026-05-08 00:15 | 24.93212 | -77.52309 | 10638 ft | 321 kts | 262° |
| 2026-05-08 00:15 | 24.92833 | -77.54830 | 10955 ft | 345 kts | 262° |
| 2026-05-08 00:16 | 24.92442 | -77.57469 | 11719 ft | 351 kts | 262° |
| 2026-05-08 00:16 | 24.92049 | -77.60128 | 12615 ft | 353 kts | 262° |
| 2026-05-08 00:16 | 24.91655 | -77.62804 | 13528 ft | 355 kts | 262° |
| 2026-05-08 00:16 | 24.91260 | -77.65498 | 14316 ft | 358 kts | 262° |
| 2026-05-08 00:17 | 24.90866 | -77.68183 | 15001 ft | 363 kts | 262° |
| 2026-05-08 00:17 | 24.90460 | -77.70948 | 15711 ft | 367 kts | 262° |
| 2026-05-08 00:17 | 24.90055 | -77.73738 | 16458 ft | 370 kts | 264° |
| 2026-05-08 00:17 | 24.89950 | -77.76578 | 17185 ft | 373 kts | 274° |
| 2026-05-08 00:18 | 24.90306 | -77.79410 | 17924 ft | 375 kts | 284° |
| 2026-05-08 00:18 | 24.90925 | -77.82209 | 18621 ft | 378 kts | 285° |
| 2026-05-08 00:18 | 24.91591 | -77.85014 | 19282 ft | 380 kts | 286° |
| 2026-05-08 00:18 | 24.92265 | -77.87838 | 19785 ft | 381 kts | 285° |
| 2026-05-08 00:19 | 24.92930 | -77.90663 | 20039 ft | 382 kts | 285° |
| 2026-05-08 00:19 | 24.93591 | -77.93514 | 20030 ft | 384 kts | 285° |
| 2026-05-08 00:19 | 24.94242 | -77.96359 | 20048 ft | 382 kts | 285° |
| 2026-05-08 00:19 | 24.94886 | -77.99197 | 20042 ft | 382 kts | 285° |
| 2026-05-08 00:20 | 24.95526 | -78.02033 | 20049 ft | 381 kts | 285° |
| 2026-05-08 00:20 | 24.96166 | -78.04865 | 20040 ft | 381 kts | 285° |
| 2026-05-08 00:20 | 24.96803 | -78.07692 | 20040 ft | 381 kts | 285° |
| 2026-05-08 00:20 | 24.97441 | -78.10522 | 20038 ft | 381 kts | 285° |
| 2026-05-08 00:21 | 24.98079 | -78.13356 | 20036 ft | 381 kts | 285° |
| 2026-05-08 00:21 | 24.98716 | -78.16188 | 20037 ft | 381 kts | 284° |
| 2026-05-08 00:21 | 24.99093 | -78.19076 | 20019 ft | 383 kts | 269° |
| 2026-05-08 00:21 | 24.98872 | -78.21999 | 20046 ft | 384 kts | 266° |
| 2026-05-08 00:22 | 24.98605 | -78.24928 | 20042 ft | 384 kts | 266° |
| 2026-05-08 00:22 | 24.98338 | -78.27860 | 20039 ft | 385 kts | 266° |
| 2026-05-08 00:22 | 24.98080 | -78.30803 | 20037 ft | 385 kts | 266° |
| 2026-05-08 00:22 | 24.97831 | -78.33744 | 20035 ft | 386 kts | 266° |
| 2026-05-08 00:23 | 24.97587 | -78.36686 | 20037 ft | 386 kts | 266° |
| 2026-05-08 00:23 | 24.97346 | -78.39628 | 20037 ft | 386 kts | 266° |
| 2026-05-08 00:23 | 24.97105 | -78.42572 | 20044 ft | 386 kts | 266° |
| 2026-05-08 00:23 | 24.96865 | -78.45516 | 20040 ft | 386 kts | 266° |
| 2026-05-08 00:24 | 24.96625 | -78.48458 | 20034 ft | 385 kts | 266° |